createdAt,value
2023-01-27T00:00:25.158Z,101094.91
2023-01-27T00:02:52.244Z,101080.19
2023-01-27T00:05:19.053Z,101082.88
2023-01-27T00:07:49.911Z,101078.84
2023-01-27T00:10:17.934Z,101074.25
2023-01-27T00:13:03.299Z,101080.88
2023-01-27T00:15:30.830Z,101070.34
2023-01-27T00:17:57.712Z,101076.50
2023-01-27T00:20:42.950Z,101071.78
2023-01-27T00:23:33.216Z,101067.31
2023-01-27T00:26:00.588Z,101065.59
2023-01-27T00:28:31.243Z,101075.28
2023-01-27T00:30:58.673Z,101068.25
2023-01-27T00:33:28.774Z,101061.56
2023-01-27T00:36:02.807Z,101052.88
2023-01-27T00:38:30.784Z,101046.84
2023-01-27T00:41:15.591Z,101051.97
2023-01-27T00:43:42.427Z,101044.72
2023-01-27T00:46:09.128Z,101040.91
2023-01-27T00:48:35.963Z,101041.44
2023-01-27T00:51:03.215Z,101041.59
2023-01-27T00:53:30.391Z,101046.50
2023-01-27T00:55:58.281Z,101041.97
2023-01-27T00:58:25.735Z,101045.75
2023-01-27T01:00:56.388Z,101040.13
2023-01-27T01:03:24.111Z,101046.00
2023-01-27T01:05:51.383Z,101045.06
2023-01-27T01:08:18.384Z,101040.66
2023-01-27T01:10:45.486Z,101039.72
2023-01-27T01:13:12.295Z,101036.81
2023-01-27T01:15:39.782Z,101034.84
2023-01-27T01:18:07.139Z,101034.06
2023-01-27T01:20:38.467Z,101030.31
2023-01-27T01:23:06.125Z,101035.41
2023-01-27T01:25:32.887Z,101036.53
2023-01-27T01:27:59.649Z,101030.94
2023-01-27T01:30:27.536Z,101026.41
2023-01-27T01:32:54.812Z,101028.44
2023-01-27T01:35:22.468Z,101024.75
2023-01-27T01:37:49.106Z,101022.53
2023-01-27T01:40:15.787Z,101022.53
2023-01-27T01:43:08.894Z,101027.13
2023-01-27T01:45:36.707Z,101027.19
2023-01-27T01:48:06.989Z,101023.25
2023-01-27T01:50:35.255Z,101018.81
2023-01-27T01:53:03.313Z,101021.00
2023-01-27T01:55:30.617Z,101022.16
2023-01-27T01:57:58.555Z,101029.09
2023-01-27T02:00:25.360Z,101017.22
2023-01-27T02:02:52.301Z,101016.56
2023-01-27T02:05:22.193Z,101018.50
2023-01-27T02:07:51.887Z,101018.09
2023-01-27T02:10:18.496Z,101012.00
2023-01-27T02:12:45.542Z,101015.28
2023-01-27T02:15:12.701Z,101013.25
2023-01-27T02:17:39.531Z,101008.13
2023-01-27T02:20:24.562Z,101003.53
2023-01-27T02:22:54.829Z,101010.59
2023-01-27T02:25:29.429Z,101008.88
2023-01-27T02:27:56.316Z,101008.88
2023-01-27T02:30:22.996Z,101017.69
2023-01-27T02:32:49.701Z,101006.19
2023-01-27T02:35:20.403Z,101003.84
2023-01-27T02:37:48.369Z,100999.66
2023-01-27T02:40:15.483Z,101008.81
2023-01-27T02:42:42.240Z,100995.94
2023-01-27T02:45:09.173Z,101011.47
2023-01-27T02:47:35.857Z,101011.09
2023-01-27T02:50:02.514Z,101000.03
2023-01-27T02:52:31.046Z,100994.66
2023-01-27T02:54:58.440Z,101004.00
2023-01-27T02:57:25.488Z,100999.97
2023-01-27T03:00:09.794Z,100997.16
2023-01-27T03:02:36.522Z,100994.16
2023-01-27T03:05:03.262Z,100994.72
2023-01-27T03:07:29.955Z,100995.16
2023-01-27T03:09:56.676Z,100993.75
2023-01-27T03:12:23.550Z,100995.81
2023-01-27T03:15:10.877Z,100990.03
2023-01-27T03:17:57.215Z,100981.00
2023-01-27T03:20:24.960Z,100996.78
2023-01-27T03:22:51.540Z,100988.63
2023-01-27T03:25:20.912Z,100995.97
2023-01-27T03:27:47.851Z,100986.97
2023-01-27T03:30:37.514Z,100987.78
2023-01-27T03:33:12.630Z,100987.25
2023-01-27T03:36:03.562Z,100994.09
2023-01-27T03:38:55.180Z,100985.38
2023-01-27T03:41:40.153Z,100988.88
2023-01-27T03:44:26.284Z,100986.78
2023-01-27T03:46:52.945Z,100994.47
2023-01-27T03:49:19.531Z,100987.94
2023-01-27T03:51:46.327Z,100978.50
2023-01-27T03:54:13.053Z,100982.88
2023-01-27T03:56:39.708Z,100982.94
2023-01-27T03:59:06.379Z,100974.25
2023-01-27T04:01:33.190Z,100980.81
2023-01-27T04:04:18.296Z,100987.94
2023-01-27T04:07:00.881Z,100975.94
2023-01-27T04:09:30.418Z,100982.00
2023-01-27T04:11:59.104Z,100974.84
2023-01-27T04:14:25.949Z,100984.16
2023-01-27T04:16:53.872Z,100973.22
2023-01-27T04:19:21.053Z,100975.72
2023-01-27T04:21:48.052Z,100974.72
2023-01-27T04:24:22.783Z,100974.13
2023-01-27T04:26:50.988Z,100976.19
2023-01-27T04:29:17.952Z,100974.19
2023-01-27T04:31:44.775Z,100974.59
2023-01-27T04:34:12.077Z,100975.72
2023-01-27T04:36:39.157Z,100973.91
2023-01-27T04:39:05.872Z,100976.03
2023-01-27T04:41:33.205Z,100971.91
2023-01-27T04:43:59.901Z,100966.06
2023-01-27T04:46:26.543Z,100968.16
2023-01-27T04:48:53.918Z,100968.47
2023-01-27T04:51:20.611Z,100972.41
2023-01-27T04:53:47.463Z,100978.09
2023-01-27T04:56:24.631Z,100975.53
2023-01-27T04:58:51.403Z,100966.34
2023-01-27T05:01:18.465Z,100966.47
2023-01-27T05:03:45.144Z,100966.41
2023-01-27T05:06:12.272Z,100963.59
2023-01-27T05:08:39.116Z,100975.28
2023-01-27T05:11:06.011Z,100967.91
2023-01-27T05:13:32.824Z,100979.69
2023-01-27T05:16:06.796Z,100978.41
2023-01-27T05:18:33.519Z,100979.63
2023-01-27T05:21:01.369Z,100975.88
2023-01-27T05:23:36.854Z,100977.38
2023-01-27T05:26:04.578Z,100982.50
2023-01-27T05:28:31.660Z,100978.41
2023-01-27T05:31:02.032Z,100976.19
2023-01-27T05:33:28.688Z,100977.13
2023-01-27T05:35:57.911Z,100975.84
2023-01-27T05:38:24.601Z,100968.41
2023-01-27T05:40:54.572Z,100973.81
2023-01-27T05:43:21.206Z,100978.34
2023-01-27T05:45:48.166Z,100968.41
2023-01-27T05:48:14.864Z,100978.19
2023-01-27T05:50:41.512Z,100977.63
2023-01-27T05:53:08.229Z,100974.31
2023-01-27T05:55:34.834Z,100977.78
2023-01-27T05:58:01.457Z,100971.19
2023-01-27T06:00:28.079Z,100984.22
2023-01-27T06:02:54.784Z,100982.22
2023-01-27T06:05:21.429Z,100978.75
2023-01-27T06:07:48.103Z,100986.44
2023-01-27T06:10:14.775Z,100985.31
2023-01-27T06:12:41.432Z,100991.22
2023-01-27T06:15:08.494Z,100985.41
2023-01-27T06:17:35.251Z,100986.94
2023-01-27T06:20:01.904Z,100988.25
2023-01-27T06:22:28.608Z,100986.06
2023-01-27T06:24:55.258Z,100978.63
2023-01-27T06:27:21.884Z,100981.66
2023-01-27T06:29:48.508Z,100991.78
2023-01-27T06:32:16.563Z,100981.81
2023-01-27T06:34:43.180Z,100992.00
2023-01-27T06:37:10.192Z,100980.94
2023-01-27T06:39:36.830Z,100993.66
2023-01-27T06:42:04.818Z,100991.44
2023-01-27T06:44:31.425Z,100987.16
2023-01-27T06:46:58.095Z,100987.94
2023-01-27T06:49:24.793Z,100994.81
2023-01-27T06:51:51.501Z,100988.16
2023-01-27T06:54:19.680Z,100985.66
2023-01-27T06:56:46.656Z,100984.97
2023-01-27T06:59:13.270Z,100985.66
2023-01-27T07:01:40.042Z,100981.56
2023-01-27T07:04:06.722Z,100988.03
2023-01-27T07:06:33.393Z,100986.25
2023-01-27T07:08:59.973Z,100990.75
2023-01-27T07:11:26.649Z,100988.88
2023-01-27T07:13:53.335Z,100984.72
2023-01-27T07:16:20.102Z,100991.53
2023-01-27T07:18:46.750Z,100987.28
2023-01-27T07:21:13.403Z,100990.94
2023-01-27T07:23:42.315Z,100994.28
2023-01-27T07:26:23.251Z,100995.44
2023-01-27T07:28:51.120Z,100992.69
2023-01-27T07:31:17.860Z,100994.75
2023-01-27T07:33:44.905Z,100993.91
2023-01-27T07:36:11.602Z,100991.44
2023-01-27T07:38:39.054Z,100994.22
2023-01-27T07:41:06.569Z,100995.75
2023-01-27T07:43:33.850Z,100998.25
2023-01-27T07:46:00.873Z,101000.72
2023-01-27T07:48:27.680Z,100994.44
2023-01-27T07:50:54.438Z,100994.50
2023-01-27T07:53:21.075Z,101000.00
2023-01-27T07:55:47.753Z,100993.31
2023-01-27T07:58:14.496Z,100992.81
2023-01-27T08:00:41.266Z,101000.38
2023-01-27T08:03:08.427Z,101005.38
2023-01-27T08:05:35.335Z,101013.94
2023-01-27T08:08:04.518Z,101004.56
2023-01-27T08:10:31.797Z,101008.03
2023-01-27T08:12:58.557Z,101004.03
2023-01-27T08:15:25.233Z,101007.75
2023-01-27T08:17:55.775Z,101010.09
2023-01-27T08:20:24.195Z,101023.69
2023-01-27T08:22:50.847Z,101025.47
2023-01-27T08:25:17.517Z,101018.41
2023-01-27T08:27:44.369Z,101028.69
2023-01-27T08:30:11.695Z,101022.44
2023-01-27T08:32:38.576Z,101021.94
2023-01-27T08:35:05.360Z,101025.72
2023-01-27T08:37:31.938Z,101022.97
2023-01-27T08:39:59.967Z,101026.13
2023-01-27T08:42:26.625Z,101019.22
2023-01-27T08:44:53.319Z,101039.63
2023-01-27T08:47:19.968Z,101036.81
2023-01-27T08:49:47.950Z,101052.81
2023-01-27T08:52:14.568Z,101053.25
2023-01-27T08:54:41.338Z,101050.31
2023-01-27T08:57:08.075Z,101057.66
2023-01-27T08:59:34.710Z,101055.41
2023-01-27T09:02:01.314Z,101056.94
2023-01-27T09:04:30.211Z,101065.75
2023-01-27T09:06:56.944Z,101070.53
2023-01-27T09:09:23.684Z,101071.44
2023-01-27T09:11:50.321Z,101071.03
2023-01-27T09:14:17.010Z,101067.78
2023-01-27T09:16:43.647Z,101078.06
2023-01-27T09:19:10.408Z,101079.22
2023-01-27T09:21:37.014Z,101076.81
2023-01-27T09:24:03.795Z,101074.63
2023-01-27T09:26:30.436Z,101076.41
2023-01-27T09:28:57.142Z,101086.19
2023-01-27T09:31:23.977Z,101081.16
2023-01-27T09:33:50.797Z,101078.88
2023-01-27T09:36:19.007Z,101084.81
2023-01-27T09:38:52.200Z,101089.00
2023-01-27T09:41:37.659Z,101085.63
2023-01-27T09:44:15.726Z,101078.53
2023-01-27T09:46:42.533Z,101076.50
2023-01-27T09:49:12.334Z,101074.03
2023-01-27T09:51:41.780Z,101073.09
2023-01-27T09:54:23.433Z,101070.47
2023-01-27T09:56:53.614Z,101074.38
2023-01-27T09:59:30.013Z,101076.81
2023-01-27T10:02:35.284Z,101070.81
2023-01-27T10:05:20.317Z,101074.81
2023-01-27T10:07:55.975Z,101080.78
2023-01-27T10:10:41.038Z,101082.38
2023-01-27T10:13:10.495Z,101083.72
2023-01-27T10:15:45.173Z,101083.22
2023-01-27T10:18:11.857Z,101082.69
2023-01-27T10:20:44.749Z,101089.44
2023-01-27T10:23:25.519Z,101092.81
2023-01-27T10:25:52.554Z,101093.78
2023-01-27T10:28:22.628Z,101089.56
2023-01-27T10:30:56.011Z,101094.09
2023-01-27T10:33:28.653Z,101096.06
2023-01-27T10:35:59.559Z,101093.38
2023-01-27T10:38:34.955Z,101094.97
2023-01-27T10:41:04.447Z,101099.25
2023-01-27T10:43:39.350Z,101093.13
2023-01-27T10:46:16.680Z,101088.59
2023-01-27T10:48:49.885Z,101088.25
2023-01-27T10:51:31.348Z,101084.63
2023-01-27T10:54:12.444Z,101079.03
2023-01-27T10:56:45.520Z,101076.84
2023-01-27T10:59:23.919Z,101074.59
2023-01-27T11:01:53.327Z,101075.56
2023-01-27T11:04:26.105Z,101067.41
2023-01-27T11:06:54.145Z,101070.66
2023-01-27T11:09:22.964Z,101065.22
2023-01-27T11:11:51.367Z,101070.56
2023-01-27T11:14:32.542Z,101066.72
2023-01-27T11:17:15.866Z,101072.53
2023-01-27T11:19:50.988Z,101067.09
2023-01-27T11:22:20.886Z,101062.00
2023-01-27T11:24:50.051Z,101063.16
2023-01-27T11:27:27.082Z,101057.91
2023-01-27T11:30:04.325Z,101052.31
2023-01-27T11:32:39.918Z,101055.25
2023-01-27T11:35:10.331Z,101057.19
2023-01-27T11:37:44.206Z,101049.00
2023-01-27T11:40:16.323Z,101045.56
2023-01-27T11:42:43.359Z,101052.63
2023-01-27T11:45:16.995Z,101042.75
2023-01-27T11:47:44.481Z,101048.22
2023-01-27T11:50:15.634Z,101039.41
2023-01-27T11:52:43.231Z,101039.25
2023-01-27T11:55:16.837Z,101029.94
2023-01-27T11:57:46.675Z,101024.00
2023-01-27T12:00:13.732Z,101022.13
2023-01-27T12:02:46.250Z,101027.63
2023-01-27T12:05:14.567Z,101026.38
2023-01-27T12:07:50.157Z,101021.81
2023-01-27T12:10:24.686Z,101018.66
2023-01-27T12:12:58.821Z,101013.88
2023-01-27T12:15:29.614Z,101002.00
2023-01-27T12:17:59.577Z,101003.06
2023-01-27T12:20:35.075Z,101004.94
2023-01-27T12:23:14.322Z,100997.34
2023-01-27T12:25:49.623Z,100999.53
2023-01-27T12:28:37.517Z,100986.91
2023-01-27T12:31:12.150Z,100990.56
2023-01-27T12:33:41.628Z,100996.03
2023-01-27T12:36:11.325Z,100997.03
2023-01-27T12:38:38.071Z,100991.53
2023-01-27T12:41:06.250Z,100983.41
2023-01-27T12:43:50.047Z,100981.88
2023-01-27T12:46:22.796Z,100989.00
2023-01-27T12:48:53.716Z,100988.47
2023-01-27T12:51:22.167Z,100991.59
2023-01-27T12:53:49.846Z,100991.59
2023-01-27T12:56:22.090Z,100989.25
2023-01-27T12:58:54.785Z,100986.53
2023-01-27T13:01:30.276Z,100988.34
2023-01-27T13:04:01.149Z,100969.94
2023-01-27T13:06:33.965Z,100972.06
2023-01-27T13:09:01.728Z,100971.44
2023-01-27T13:11:34.564Z,100966.66
2023-01-27T13:14:01.253Z,100977.47
2023-01-27T13:16:29.435Z,100972.59
2023-01-27T13:18:57.853Z,100970.41
2023-01-27T13:21:26.956Z,100966.94
2023-01-27T13:23:54.417Z,100963.00
2023-01-27T13:26:33.632Z,100963.56
2023-01-27T13:29:00.449Z,100966.50
2023-01-27T13:31:34.202Z,100961.44
2023-01-27T13:34:05.414Z,100975.13
2023-01-27T13:36:43.522Z,100970.38
2023-01-27T13:39:16.261Z,100974.59
2023-01-27T13:41:45.951Z,100977.13
2023-01-27T13:44:21.628Z,100979.47
2023-01-27T13:46:49.805Z,100973.81
2023-01-27T13:49:32.071Z,100978.47
2023-01-27T13:51:58.751Z,100977.03
2023-01-27T13:54:25.480Z,100978.22
2023-01-27T13:56:58.348Z,100979.16
2023-01-27T13:59:27.986Z,100977.13
2023-01-27T14:01:54.736Z,100976.94
2023-01-27T14:04:32.681Z,100976.06
2023-01-27T14:07:15.104Z,100975.34
2023-01-27T14:09:49.401Z,100978.47
2023-01-27T14:12:24.855Z,100981.63
2023-01-27T14:15:08.673Z,100970.63
2023-01-27T14:17:35.488Z,100973.97
2023-01-27T14:20:07.943Z,100973.97
2023-01-27T14:22:44.029Z,100978.81
2023-01-27T14:25:32.613Z,100972.19
2023-01-27T14:28:10.920Z,100979.31
2023-01-27T14:30:45.084Z,100973.13
2023-01-27T14:33:17.607Z,100974.44
2023-01-27T14:35:50.030Z,100981.25
2023-01-27T14:38:28.687Z,100981.25
2023-01-27T14:41:01.135Z,100985.66
2023-01-27T14:43:30.705Z,100984.00
2023-01-27T14:46:08.951Z,100987.66
2023-01-27T14:48:38.418Z,100985.00
2023-01-27T14:51:12.549Z,100980.81
2023-01-27T14:53:57.371Z,100984.13
2023-01-27T14:56:32.096Z,100986.66
2023-01-27T14:59:16.623Z,100990.28
2023-01-27T15:01:49.232Z,101000.28
2023-01-27T15:04:19.001Z,100997.28
2023-01-27T15:07:09.260Z,100994.28
2023-01-27T15:09:40.872Z,100996.94
2023-01-27T15:12:25.732Z,101001.50
2023-01-27T15:14:54.380Z,101002.31
2023-01-27T15:17:20.984Z,101013.31
2023-01-27T15:20:06.584Z,101011.47
2023-01-27T15:22:39.829Z,101004.81
2023-01-27T15:25:29.895Z,101010.34
2023-01-27T15:27:57.594Z,101025.31
2023-01-27T15:30:26.488Z,101013.38
2023-01-27T15:32:53.482Z,101023.81
2023-01-27T15:35:28.026Z,101016.84
2023-01-27T15:38:08.556Z,101015.03
2023-01-27T15:40:53.925Z,101021.38
2023-01-27T15:43:23.399Z,101026.34
2023-01-27T15:45:54.349Z,101021.03
2023-01-27T15:48:28.526Z,101022.69
2023-01-27T15:50:59.464Z,101025.53
2023-01-27T15:53:36.192Z,101030.50
2023-01-27T15:56:03.760Z,101034.34
2023-01-27T15:58:36.396Z,101035.66
2023-01-27T16:01:05.353Z,101032.69
2023-01-27T16:03:35.237Z,101036.69
2023-01-27T16:06:12.206Z,101044.16
2023-01-27T16:08:41.569Z,101045.31
2023-01-27T16:11:26.566Z,101040.69
2023-01-27T16:14:13.658Z,101048.47
2023-01-27T16:16:41.796Z,101050.97
2023-01-27T16:19:11.345Z,101044.69
2023-01-27T16:21:40.844Z,101052.47
2023-01-27T16:24:27.770Z,101057.28
2023-01-27T16:27:06.700Z,101058.44
2023-01-27T16:29:46.267Z,101054.47
2023-01-27T16:32:20.692Z,101061.44
2023-01-27T16:34:56.125Z,101066.94
2023-01-27T16:37:25.075Z,101068.25
2023-01-27T16:39:54.874Z,101072.75
2023-01-27T16:42:28.465Z,101081.53
2023-01-27T16:44:57.306Z,101076.91
2023-01-27T16:47:26.347Z,101082.38
2023-01-27T16:49:56.059Z,101082.69
2023-01-27T16:52:40.845Z,101084.03
2023-01-27T16:55:19.397Z,101080.38
2023-01-27T16:57:46.042Z,101082.88
2023-01-27T17:00:23.180Z,101083.69
2023-01-27T17:02:51.515Z,101090.19
2023-01-27T17:05:19.337Z,101084.03
2023-01-27T17:08:03.972Z,101085.88
2023-01-27T17:10:34.807Z,101092.34
2023-01-27T17:13:03.573Z,101092.50
2023-01-27T17:15:37.930Z,101099.66
2023-01-27T17:18:09.628Z,101096.50
2023-01-27T17:20:38.343Z,101094.81
2023-01-27T17:23:05.817Z,101098.47
2023-01-27T17:25:34.883Z,101103.66
2023-01-27T17:28:03.374Z,101106.63
2023-01-27T17:30:34.878Z,101112.78
2023-01-27T17:33:02.809Z,101111.28
2023-01-27T17:35:36.975Z,101123.72
2023-01-27T17:38:07.741Z,101122.06
2023-01-27T17:40:38.652Z,101124.03
2023-01-27T17:43:24.101Z,101124.38
2023-01-27T17:46:01.728Z,101127.38
2023-01-27T17:48:28.387Z,101123.88
2023-01-27T17:50:55.014Z,101124.03
2023-01-27T17:53:24.785Z,101119.41
2023-01-27T17:55:52.312Z,101131.66
2023-01-27T17:58:22.625Z,101132.69
2023-01-27T18:00:49.314Z,101142.28
2023-01-27T18:03:20.151Z,101141.63
2023-01-27T18:05:48.629Z,101140.31
2023-01-27T18:08:15.251Z,101139.66
2023-01-27T18:10:45.840Z,101146.09
2023-01-27T18:13:14.072Z,101149.06
2023-01-27T18:15:42.635Z,101144.94
2023-01-27T18:18:27.675Z,101156.19
2023-01-27T18:20:57.138Z,101157.84
2023-01-27T18:23:28.493Z,101164.28
2023-01-27T18:26:02.168Z,101167.09
2023-01-27T18:28:32.549Z,101161.28
2023-01-27T18:30:59.354Z,101171.06
2023-01-27T18:33:25.986Z,101166.59
2023-01-27T18:35:57.120Z,101164.59
2023-01-27T18:38:27.668Z,101166.09
2023-01-27T18:40:55.752Z,101175.19
2023-01-27T18:43:22.392Z,101171.56
2023-01-27T18:45:50.480Z,101173.84
2023-01-27T18:48:17.589Z,101183.13
2023-01-27T18:50:45.462Z,101181.94
2023-01-27T18:53:16.572Z,101186.25
2023-01-27T18:55:43.496Z,101187.25
2023-01-27T18:58:13.282Z,101183.63
2023-01-27T19:00:48.159Z,101189.53
2023-01-27T19:03:17.871Z,101191.81
2023-01-27T19:05:44.592Z,101191.66
2023-01-27T19:08:15.586Z,101202.34
2023-01-27T19:10:42.295Z,101204.69
2023-01-27T19:13:09.646Z,101203.63
2023-01-27T19:15:41.567Z,101206.28
2023-01-27T19:18:24.985Z,101208.66
2023-01-27T19:20:53.182Z,101202.78
2023-01-27T19:23:20.166Z,101205.00
2023-01-27T19:25:48.115Z,101210.59
2023-01-27T19:28:21.267Z,101206.50
2023-01-27T19:30:47.935Z,101206.97
2023-01-27T19:33:19.069Z,101210.03
2023-01-27T19:35:48.016Z,101211.59
2023-01-27T19:38:14.639Z,101209.31
2023-01-27T19:40:41.683Z,101207.66
2023-01-27T19:43:10.266Z,101208.19
2023-01-27T19:45:36.961Z,101215.06
2023-01-27T19:48:03.723Z,101214.00
2023-01-27T19:50:30.910Z,101217.31
2023-01-27T19:52:58.358Z,101219.53
2023-01-27T19:55:25.599Z,101219.22
2023-01-27T19:57:52.991Z,101212.94
2023-01-27T20:00:27.486Z,101219.38
2023-01-27T20:02:54.573Z,101223.16
2023-01-27T20:05:22.324Z,101222.03
2023-01-27T20:07:49.325Z,101219.91
2023-01-27T20:10:23.721Z,101216.25
2023-01-27T20:12:54.566Z,101221.56
2023-01-27T20:15:24.257Z,101230.34
2023-01-27T20:17:54.529Z,101225.34
2023-01-27T20:20:21.946Z,101222.84
2023-01-27T20:22:48.723Z,101225.50
2023-01-27T20:25:16.510Z,101229.13
2023-01-27T20:27:44.066Z,101227.94
2023-01-27T20:30:21.624Z,101223.75
2023-01-27T20:32:48.396Z,101230.28
2023-01-27T20:35:16.500Z,101224.53
2023-01-27T20:37:43.654Z,101231.34
2023-01-27T20:40:12.745Z,101231.19
2023-01-27T20:42:39.411Z,101238.50
2023-01-27T20:45:06.630Z,101231.84
2023-01-27T20:47:33.502Z,101244.63
2023-01-27T20:50:00.148Z,101246.75
2023-01-27T20:52:26.989Z,101245.09
2023-01-27T20:54:53.615Z,101250.53
2023-01-27T20:57:22.165Z,101247.81
2023-01-27T20:59:49.047Z,101254.44
2023-01-27T21:02:16.462Z,101253.50
2023-01-27T21:04:43.107Z,101255.63
2023-01-27T21:07:09.751Z,101264.03
2023-01-27T21:09:36.484Z,101264.84
2023-01-27T21:12:03.228Z,101260.94
2023-01-27T21:14:29.921Z,101265.56
2023-01-27T21:16:56.698Z,101271.97
2023-01-27T21:19:23.461Z,101275.59
2023-01-27T21:21:50.181Z,101287.19
2023-01-27T21:24:16.824Z,101304.78
2023-01-27T21:26:43.497Z,101303.78
2023-01-27T21:29:11.457Z,101301.88
2023-01-27T21:31:40.159Z,101301.72
2023-01-27T21:34:06.816Z,101297.84
2023-01-27T21:36:33.409Z,101292.53
2023-01-27T21:39:02.390Z,101293.50
2023-01-27T21:41:47.736Z,101284.91
2023-01-27T21:44:40.690Z,101288.50
2023-01-27T21:47:08.943Z,101286.81
2023-01-27T21:49:56.332Z,101282.09
2023-01-27T21:52:23.865Z,101279.59
2023-01-27T21:54:50.503Z,101282.66
2023-01-27T21:57:19.157Z,101286.13
2023-01-27T21:59:45.997Z,101288.75
2023-01-27T22:02:13.579Z,101283.75
2023-01-27T22:04:41.066Z,101287.94
2023-01-27T22:07:10.009Z,101287.66
2023-01-27T22:09:37.296Z,101287.41
2023-01-27T22:12:08.458Z,101290.28
2023-01-27T22:14:35.230Z,101291.00
2023-01-27T22:17:02.027Z,101291.56
2023-01-27T22:19:29.385Z,101290.56
2023-01-27T22:21:56.089Z,101292.94
2023-01-27T22:24:22.766Z,101298.66
2023-01-27T22:26:49.458Z,101298.94
2023-01-27T22:29:16.162Z,101298.38
2023-01-27T22:31:42.772Z,101296.00
2023-01-27T22:34:09.579Z,101298.78
2023-01-27T22:36:36.631Z,101292.94
2023-01-27T22:39:04.219Z,101296.16
2023-01-27T22:41:31.587Z,101295.19
2023-01-27T22:43:58.294Z,101289.47
2023-01-27T22:46:24.911Z,101294.63
2023-01-27T22:48:51.617Z,101297.53
2023-01-27T22:51:18.399Z,101301.16
2023-01-27T22:53:46.104Z,101299.19
2023-01-27T22:56:12.752Z,101292.94
2023-01-27T22:58:39.426Z,101298.78
2023-01-27T23:01:06.908Z,101301.00
2023-01-27T23:03:33.981Z,101295.28
2023-01-27T23:06:04.276Z,101291.69
2023-01-27T23:08:32.528Z,101297.63
2023-01-27T23:11:01.375Z,101301.00
2023-01-27T23:13:28.952Z,101297.09
2023-01-27T23:15:55.574Z,101292.09
2023-01-27T23:18:22.502Z,101296.00
2023-01-27T23:20:49.113Z,101308.00
2023-01-27T23:23:16.082Z,101305.34
2023-01-27T23:25:46.002Z,101311.63
2023-01-27T23:28:13.645Z,101308.50
2023-01-27T23:30:44.178Z,101306.69
2023-01-27T23:33:11.798Z,101305.72
2023-01-27T23:35:38.700Z,101307.19
2023-01-27T23:38:10.527Z,101297.47
2023-01-27T23:40:40.792Z,101301.19
2023-01-27T23:43:07.397Z,101301.94
2023-01-27T23:45:34.165Z,101302.41
2023-01-27T23:48:00.826Z,101304.22
2023-01-27T23:50:27.472Z,101306.28
2023-01-27T23:52:54.097Z,101313.75
2023-01-27T23:55:20.840Z,101314.38
2023-01-27T23:57:47.428Z,101307.97
